Broad Channel, New York
Current Conditions -  °F | °C
As of 11:51 AM on Thursday 30 Oct 2014 (Local Time) from KJFK Reporting Station
Scattered Clouds Scattered Clouds  
Wind Chill: 14°   Ceiling: Unl
Heat Index: 14°   Visibility: 10mi
Dew Point:   Wind: 13mph
Humidity: 47%   Direction: 330°NNW
Pressure: 29.99"   Gusts: NA
Location:  40.6184°N, 73.8256°W
Report Text: KJFK 301551Z 33011KT 10SM FEW047 SCT070 14/03 A2999 RMK AO2 SLP156 T01440033 $
Loading
Personal Weather Stations






























Interactive Weather Map
Tropical Storm Tracking
New forecast layout! Learn more

10-Day Weather Forecast

Advertisements
Track Severe Weather on mobile